Time;durP1;ratioP1;P1;durP2;ratioP2;P2;SDS_P1;SDS_P2;PMS_P1;PMS_P2;Temp;Humidity;BMP_temperature;BMP_pressure;BME280_temperature;BME280_humidity;BME280_pressure;Samples;Min_cycle;Max_cycle;Signal;HPM_P1;HPM_P2
2022/01/18 00:01:50;;;;;;;3.83;1.10;;;4.70;47.70;;;;;;5073412;28;20259;-50
2022/01/18 00:04:16;;;;;;;2.65;1.15;;;4.60;47.60;;;;;;5073212;28;20647;-50
2022/01/18 00:06:46;;;;;;;3.05;0.85;;;4.60;47.50;;;;;;5073060;28;20188;-50
2022/01/18 00:09:12;;;;;;;1.80;0.85;;;4.60;47.40;;;;;;5073117;28;20161;-50
2022/01/18 00:11:49;;;;;;;1.17;0.70;;;4.50;47.30;;;;;;5073135;28;20175;-50
2022/01/18 00:17:18;;;;;;;1.88;1.20;;;4.50;47.20;;;;;;5072419;28;20180;-50
2022/01/18 00:19:53;;;;;;;2.45;1.10;;;4.40;47.10;;;;;;5073037;28;20152;-50
2022/01/18 00:22:20;;;;;;;1.15;0.68;;;4.30;47.40;;;;;;5073062;28;20164;-50
2022/01/18 00:24:45;;;;;;;1.30;1.05;;;5.50;48.10;;;;;;5071564;28;20177;-50
2022/01/18 00:27:15;;;;;;;3.73;0.90;;;4.30;47.90;;;;;;5072921;28;20176;-49
2022/01/18 00:33:17;;;;;;;2.75;0.98;;;4.40;47.80;;;;;;5075664;28;20187;-50
2022/01/18 00:35:25;;;;;;;6.57;0.82;;;4.40;47.60;;;;;;5076213;28;20191;-50
2022/01/18 00:37:54;;;;;;;1.20;0.82;;;4.30;47.30;;;;;;5076576;28;20180;-50
2022/01/18 00:40:20;;;;;;;1.90;1.05;;;4.30;47.10;;;;;;5076388;28;20218;-50
2022/01/18 00:42:46;;;;;;;1.07;0.50;;;4.30;46.90;;;;;;5076521;28;20171;-50
2022/01/18 00:45:11;;;;;;;1.97;0.93;;;4.20;46.80;;;;;;5076427;28;20533;-50
2022/01/18 00:47:37;;;;;;;5.47;1.77;;;4.20;47.30;;;;;;5076322;28;20176;-50
2022/01/18 00:50:04;;;;;;;1.90;0.97;;;4.20;47.50;;;;;;5075182;28;20164;-50
2022/01/18 00:52:35;;;;;;;6.70;2.20;;;4.20;47.30;;;;;;5076225;28;20173;-50
2022/01/18 00:55:01;;;;;;;1.63;1.20;;;4.20;47.20;;;;;;5076181;28;20161;-50
2022/01/18 00:57:28;;;;;;;2.47;1.40;;;4.10;47.00;;;;;;5076342;28;20177;-50
2022/01/18 00:59:53;;;;;;;3.97;0.80;;;4.10;47.00;;;;;;5076192;28;20173;-50
2022/01/18 01:02:19;;;;;;;1.00;0.37;;;5.30;47.50;;;;;;5076052;28;20690;-50
2022/01/18 01:04:49;;;;;;;5.90;1.33;;;4.10;47.10;;;;;;5076165;28;20632;-50
2022/01/18 01:07:21;;;;;;;1.33;0.80;;;4.10;46.90;;;;;;5076016;28;20480;-50
2022/01/18 01:09:48;;;;;;;1.42;1.05;;;4.10;46.90;;;;;;5075963;28;20200;-50
2022/01/18 01:12:17;;;;;;;1.23;0.68;;;4.10;46.90;;;;;;5075899;28;20165;-50
2022/01/18 01:14:45;;;;;;;1.92;1.27;;;4.00;46.60;;;;;;5074577;28;20222;-50
2022/01/18 01:46:40;;;;;;;1.87;1.10;;;3.80;46.80;;;;;;5074966;28;20196;-50
2022/01/18 01:49:11;;;;;;;1.38;0.73;;;3.90;46.90;;;;;;5075317;28;20180;-50
2022/01/18 01:51:37;;;;;;;1.20;0.85;;;3.90;47.00;;;;;;5075158;28;20150;-50
2022/01/18 01:54:05;;;;;;;1.67;0.97;;;3.90;46.90;;;;;;5075060;28;20187;-50
2022/01/18 01:56:32;;;;;;;3.20;2.08;;;3.90;47.00;;;;;;5075024;28;20651;-50
2022/01/18 01:58:59;;;;;;;1.02;0.43;;;3.90;46.90;;;;;;5074888;28;20183;-50
2022/01/18 02:01:25;;;;;;;1.00;0.52;;;3.90;47.10;;;;;;5073744;28;20184;-50
2022/01/18 02:03:50;;;;;;;17.65;2.85;;;3.90;47.30;;;;;;5074940;28;20658;-50
2022/01/18 02:06:17;;;;;;;3.47;1.33;;;4.00;47.50;;;;;;5074789;28;20188;-49
2022/01/18 02:08:44;;;;;;;2.35;1.23;;;4.00;47.40;;;;;;5074993;28;20225;-50
2022/01/18 02:11:11;;;;;;;3.15;1.95;;;4.10;47.30;;;;;;5074751;28;20172;-50
2022/01/18 02:13:37;;;;;;;3.30;0.80;;;4.10;47.20;;;;;;5074785;28;20168;-50
2022/01/18 02:24:01;;;;;;;3.90;1.42;;;4.10;47.00;;;;;;5074842;28;20164;-50
2022/01/18 02:26:26;;;;;;;1.00;0.32;;;4.10;47.00;;;;;;5074339;28;20192;-50
2022/01/18 02:28:52;;;;;;;2.10;0.63;;;4.10;47.20;;;;;;5074355;28;20176;-50
2022/01/18 02:31:21;;;;;;;1.77;0.60;;;4.20;47.20;;;;;;5074314;28;20191;-50
2022/01/18 02:33:47;;;;;;;1.95;1.42;;;4.20;47.20;;;;;;5074379;28;20548;-50
2022/01/18 02:36:12;;;;;;;8.97;1.33;;;4.20;46.90;;;;;;5074241;28;20168;-50
2022/01/18 02:38:38;;;;;;;1.17;0.50;;;4.20;47.00;;;;;;5074425;28;20196;-50
2022/01/18 02:41:05;;;;;;;1.60;0.87;;;4.20;46.90;;;;;;5074194;28;20527;-50
2022/01/18 02:43:46;;;;;;;7.22;1.23;;;4.20;46.80;;;;;;5074076;28;20174;-50
2022/01/18 02:46:12;;;;;;;2.80;0.90;;;4.10;46.70;;;;;;5074036;28;20254;-50
2022/01/18 02:48:38;;;;;;;1.00;0.33;;;4.10;46.80;;;;;;5074100;28;20639;-50
2022/01/18 02:51:04;;;;;;;1.50;1.00;;;4.10;46.90;;;;;;5073973;28;20771;-50
2022/01/18 02:53:30;;;;;;;2.10;0.57;;;4.00;46.60;;;;;;5073192;28;20205;-50
2022/01/18 02:55:58;;;;;;;1.92;0.90;;;4.00;47.30;;;;;;5073929;28;20524;-50
2022/01/18 02:58:34;;;;;;;3.20;1.67;;;4.00;46.70;;;;;;5073846;28;20689;-50
2022/01/18 03:03:25;;;;;;;1.10;0.50;;;4.00;46.90;;;;;;5073788;28;20621;-50
2022/01/18 03:05:51;;;;;;;2.53;1.30;;;4.00;46.90;;;;;;5073779;28;20274;-50
2022/01/18 03:08:17;;;;;;;1.30;0.53;;;4.10;46.90;;;;;;5073670;28;20247;-50
2022/01/18 03:10:43;;;;;;;1.63;0.85;;;4.10;46.90;;;;;;5073702;28;20648;-50
2022/01/18 03:13:09;;;;;;;2.07;1.37;;;4.50;47.00;;;;;;5073684;28;20173;-50
2022/01/18 03:15:36;;;;;;;1.63;0.60;;;4.00;46.90;;;;;;5073633;28;20435;-50
2022/01/18 03:18:08;;;;;;;1.85;0.80;;;4.10;47.20;;;;;;5073630;28;20176;-50
2022/01/18 03:20:34;;;;;;;1.10;0.65;;;4.10;47.30;;;;;;5072111;28;20228;-50
2022/01/18 03:23:00;;;;;;;2.33;1.20;;;4.10;47.50;;;;;;5073670;28;20176;-50
2022/01/18 03:25:51;;;;;;;1.67;0.70;;;4.20;48.20;;;;;;5072220;28;20559;-50
2022/01/18 03:28:15;;;;;;;4.80;2.00;;;4.20;47.70;;;;;;5073488;28;20192;-50
2022/01/18 03:30:48;;;;;;;14.33;1.10;;;4.30;47.70;;;;;;5073495;28;20168;-50
2022/01/18 03:33:17;;;;;;;2.67;1.00;;;4.30;47.60;;;;;;5073764;28;20398;-50
2022/01/18 03:35:44;;;;;;;2.33;1.00;;;4.30;47.40;;;;;;5073539;28;20255;-50
2022/01/18 03:38:11;;;;;;;8.75;1.90;;;4.40;47.40;;;;;;5073434;28;20164;-50
2022/01/18 03:40:37;;;;;;;1.75;0.40;;;4.40;47.40;;;;;;5073399;28;20253;-50
2022/01/18 03:43:06;;;;;;;1.05;0.38;;;4.40;47.30;;;;;;5073360;28;20165;-50
2022/01/18 03:45:40;;;;;;;9.65;0.70;;;4.40;47.40;;;;;;5073228;28;20200;-50
2022/01/18 03:48:11;;;;;;;1.50;0.98;;;4.50;47.50;;;;;;5073626;28;20623;-50
2022/01/18 03:50:37;;;;;;;2.25;0.68;;;4.50;47.50;;;;;;5073265;28;20516;-49
2022/01/18 03:53:03;;;;;;;2.17;0.60;;;4.50;47.40;;;;;;5073337;28;20164;-50
2022/01/18 03:55:29;;;;;;;1.00;0.33;;;4.50;47.50;;;;;;5073520;28;20164;-50
2022/01/18 03:57:54;;;;;;;1.90;1.10;;;4.60;47.70;;;;;;5071910;28;20419;-50
2022/01/18 04:00:25;;;;;;;2.20;1.10;;;4.60;47.60;;;;;;5073263;28;20675;-50
2022/01/18 04:02:53;;;;;;;3.83;0.90;;;4.70;48.50;;;;;;5073233;28;20403;-50
2022/01/18 04:05:19;;;;;;;3.85;0.88;;;4.70;47.80;;;;;;5057550;28;20580;-50
2022/01/18 04:07:45;;;;;;;1.20;0.83;;;4.70;47.80;;;;;;5077362;28;20207;-50
2022/01/18 04:10:13;;;;;;;1.30;0.82;;;4.80;48.00;;;;;;5077103;28;20419;-50
2022/01/18 04:12:39;;;;;;;7.32;1.25;;;4.90;48.10;;;;;;5077218;28;20242;-50
2022/01/18 04:15:08;;;;;;;3.85;1.23;;;4.90;48.00;;;;;;5076954;28;20175;-50
2022/01/18 04:25:53;;;;;;;1.50;0.80;;;5.00;47.90;;;;;;5076917;28;20231;-50
2022/01/18 04:30:57;;;;;;;1.15;0.60;;;5.00;48.00;;;;;;5076686;28;20149;-50
2022/01/18 04:33:22;;;;;;;3.53;1.20;;;5.00;48.00;;;;;;5076528;28;20656;-50
2022/01/18 04:35:48;;;;;;;3.50;0.50;;;5.10;48.20;;;;;;5076521;28;20519;-50
2022/01/18 04:38:14;;;;;;;2.58;1.23;;;5.10;48.10;;;;;;5076393;28;20214;-50
2022/01/18 04:40:43;;;;;;;1.40;0.90;;;5.10;48.10;;;;;;5076903;28;20227;-50
2022/01/18 04:43:23;;;;;;;1.30;0.77;;;5.20;48.10;;;;;;5075333;28;20180;-50
2022/01/18 04:48:35;;;;;;;6.35;2.30;;;5.20;48.30;;;;;;5076458;28;20184;-50
2022/01/18 04:51:03;;;;;;;2.35;0.95;;;5.30;48.30;;;;;;5076343;28;20213;-50
2022/01/18 04:53:31;;;;;;;2.10;0.88;;;5.40;48.40;;;;;;5076413;28;20493;-50
2022/01/18 04:56:05;;;;;;;2.15;0.80;;;5.40;48.30;;;;;;5076203;28;20173;-50
2022/01/18 04:58:31;;;;;;;1.65;1.05;;;5.40;48.40;;;;;;5076446;28;20153;-50
2022/01/18 05:01:00;;;;;;;1.83;0.77;;;5.50;48.50;;;;;;5076079;28;20651;-50
2022/01/18 05:03:28;;;;;;;1.63;1.08;;;5.50;48.50;;;;;;5075957;28;20913;-50
2022/01/18 05:05:57;;;;;;;1.58;0.75;;;5.50;48.60;;;;;;5075993;28;20223;-50
2022/01/18 05:08:24;;;;;;;1.38;0.73;;;5.60;48.60;;;;;;5076179;28;20236;-50
2022/01/18 05:10:54;;;;;;;1.50;0.57;;;5.60;48.60;;;;;;5075893;28;20700;-50
2022/01/18 05:15:57;;;;;;;1.80;0.75;;;5.70;48.60;;;;;;5075480;28;20169;-50
2022/01/18 05:23:38;;;;;;;14.32;1.23;;;5.70;48.60;;;;;;5075705;28;20153;-50
2022/01/18 05:26:04;;;;;;;6.93;0.60;;;5.80;48.60;;;;;;5075530;28;20690;-50
2022/01/18 05:28:30;;;;;;;9.80;0.93;;;5.80;48.60;;;;;;5074284;28;20176;-50
2022/01/18 05:30:55;;;;;;;1.53;0.70;;;5.80;48.50;;;;;;5075495;28;20169;-50
2022/01/18 05:33:22;;;;;;;1.20;0.87;;;5.90;49.30;;;;;;5075777;28;20173;-50
2022/01/18 05:35:49;;;;;;;4.13;1.50;;;5.90;48.50;;;;;;5075392;28;20705;-50
2022/01/18 05:38:15;;;;;;;1.50;0.70;;;5.90;48.50;;;;;;5075431;28;20260;-50
2022/01/18 05:40:41;;;;;;;2.13;0.97;;;7.10;48.90;;;;;;5075434;28;20660;-50
2022/01/18 05:43:07;;;;;;;6.20;1.50;;;6.00;48.30;;;;;;5075236;28;20516;-50
2022/01/18 05:45:33;;;;;;;3.60;0.95;;;6.00;48.30;;;;;;5073881;28;20562;-50
2022/01/18 05:47:59;;;;;;;1.52;0.98;;;6.00;48.20;;;;;;5075089;28;20177;-50
2022/01/18 05:50:24;;;;;;;1.55;0.80;;;6.00;48.30;;;;;;5075061;28;20214;-50
2022/01/18 05:52:50;;;;;;;2.77;0.60;;;6.00;48.30;;;;;;5075199;28;20169;-50
2022/01/18 05:55:16;;;;;;;1.10;0.87;;;6.00;48.30;;;;;;5074920;28;20528;-50
2022/01/18 05:57:42;;;;;;;1.77;0.53;;;6.00;48.20;;;;;;5073658;28;20208;-50
2022/01/18 06:00:18;;;;;;;11.90;1.10;;;6.00;48.10;;;;;;5075186;28;20414;-50
2022/01/18 06:02:53;;;;;;;3.65;1.40;;;6.10;48.20;;;;;;5075086;28;20469;-50
2022/01/18 06:08:03;;;;;;;1.60;0.55;;;6.10;48.20;;;;;;5074896;28;20645;-50
2022/01/18 06:10:29;;;;;;;1.20;0.60;;;6.10;48.20;;;;;;5074777;28;20176;-50
2022/01/18 06:12:55;;;;;;;1.20;0.67;;;6.10;48.20;;;;;;5074555;28;20192;-50
2022/01/18 06:15:21;;;;;;;1.20;0.60;;;6.10;48.20;;;;;;5074439;28;20157;-50
2022/01/18 06:17:46;;;;;;;1.10;0.50;;;6.10;48.10;;;;;;5074739;28;20403;-50
2022/01/18 06:20:13;;;;;;;6.83;0.90;;;6.10;48.10;;;;;;5074561;28;20684;-50
2022/01/18 06:22:38;;;;;;;1.42;0.75;;;6.10;48.10;;;;;;5074547;28;20165;-50
2022/01/18 06:25:05;;;;;;;1.30;0.70;;;6.10;48.10;;;;;;5074478;28;20226;-50
2022/01/18 06:27:31;;;;;;;2.38;0.60;;;6.10;48.10;;;;;;5073085;28;20180;-50
2022/01/18 06:29:57;;;;;;;1.10;0.50;;;6.10;48.00;;;;;;5074370;28;20176;-50
2022/01/18 06:32:23;;;;;;;6.50;0.70;;;6.10;48.00;;;;;;5074253;28;20410;-50
2022/01/18 06:34:48;;;;;;;3.87;1.00;;;6.10;47.90;;;;;;5074340;28;20531;-50
2022/01/18 06:37:15;;;;;;;1.37;0.73;;;6.10;47.90;;;;;;5074031;28;20407;-50
2022/01/18 06:39:41;;;;;;;7.53;1.48;;;6.20;47.90;;;;;;5074201;28;20418;-50
2022/01/18 06:42:07;;;;;;;19.77;1.60;;;6.20;47.90;;;;;;5072725;28;20540;-50
2022/01/18 06:44:33;;;;;;;1.30;0.57;;;6.20;47.30;;;;;;5073298;28;20184;-50
2022/01/18 06:46:58;;;;;;;13.10;1.40;;;6.20;47.80;;;;;;5073929;28;20188;-50
2022/01/18 06:49:24;;;;;;;4.10;1.20;;;6.20;47.70;;;;;;5073830;28;20175;-50
2022/01/18 06:51:50;;;;;;;1.30;0.77;;;6.30;48.40;;;;;;5074043;28;20176;-50
2022/01/18 06:54:17;;;;;;;1.83;0.90;;;6.30;47.60;;;;;;5073944;28;20171;-50
2022/01/18 06:56:47;;;;;;;14.52;1.70;;;6.30;47.60;;;;;;5073732;28;20259;-50
2022/01/18 06:59:13;;;;;;;2.22;0.60;;;6.20;47.60;;;;;;5073781;28;20169;-50
2022/01/18 07:01:40;;;;;;;2.25;1.55;;;6.20;47.60;;;;;;5073915;28;20528;-50
2022/01/18 07:04:10;;;;;;;1.65;1.02;;;6.20;47.60;;;;;;5073776;28;20608;-50
2022/01/18 07:06:36;;;;;;;1.10;0.30;;;6.30;47.70;;;;;;5073576;28;20192;-50
2022/01/18 07:09:03;;;;;;;1.40;0.87;;;6.30;48.40;;;;;;5073787;28;20513;-50
2022/01/18 07:11:28;;;;;;;1.38;1.00;;;6.30;47.40;;;;;;5073622;28;20164;-50
2022/01/18 07:13:54;;;;;;;2.03;1.00;;;6.30;47.40;;;;;;5073567;28;20177;-50
2022/01/18 07:16:20;;;;;;;2.17;0.93;;;6.30;47.50;;;;;;5072233;28;20616;-50
2022/01/18 07:18:46;;;;;;;2.10;1.40;;;6.30;48.10;;;;;;5073504;28;20169;-50
2022/01/18 07:21:12;;;;;;;3.87;1.10;;;6.30;47.40;;;;;;5073294;28;20747;-50
2022/01/18 07:23:38;;;;;;;4.53;1.30;;;6.40;47.40;;;;;;5073445;28;20165;-50
2022/01/18 07:26:05;;;;;;;3.75;1.80;;;6.40;47.40;;;;;;5073505;28;20196;-50
2022/01/18 07:28:31;;;;;;;4.63;1.20;;;6.40;47.30;;;;;;5073514;28;20196;-50
2022/01/18 07:30:56;;;;;;;12.57;1.20;;;6.40;47.30;;;;;;5072182;28;20629;-50
2022/01/18 07:33:22;;;;;;;3.00;1.67;;;6.40;47.30;;;;;;5073617;28;20177;-50
2022/01/18 07:35:49;;;;;;;2.50;1.50;;;6.40;47.40;;;;;;5073844;28;20835;-50
2022/01/18 07:38:17;;;;;;;3.05;2.03;;;6.40;47.30;;;;;;5073390;28;20407;-50
2022/01/18 07:40:45;;;;;;;2.20;1.15;;;6.40;47.30;;;;;;5071771;28;20223;-50
2022/01/18 07:43:15;;;;;;;7.65;1.35;;;6.40;47.30;;;;;;5073307;28;20165;-50
2022/01/18 07:45:42;;;;;;;2.55;0.75;;;6.40;47.20;;;;;;5073550;28;20678;-50
2022/01/18 07:48:08;;;;;;;1.30;0.73;;;6.50;47.40;;;;;;5073093;28;20180;-50
2022/01/18 07:50:34;;;;;;;1.13;0.60;;;6.50;47.40;;;;;;5073213;28;20169;-50
2022/01/18 07:53:00;;;;;;;5.03;0.93;;;6.50;47.40;;;;;;5073230;28;20176;-50
2022/01/18 07:55:26;;;;;;;2.10;0.87;;;6.50;47.10;;;;;;5073177;28;20165;-50
2022/01/18 07:57:52;;;;;;;1.90;1.07;;;6.50;47.20;;;;;;5073146;28;20532;-50
2022/01/18 08:00:18;;;;;;;1.20;0.98;;;6.50;47.20;;;;;;5073261;28;20410;-50
2022/01/18 08:02:45;;;;;;;9.30;1.52;;;6.50;47.30;;;;;;5073319;28;20183;-50
2022/01/18 08:05:11;;;;;;;1.33;0.50;;;6.50;47.30;;;;;;5071736;28;20173;-50
2022/01/18 08:07:37;;;;;;;2.90;1.45;;;6.50;47.20;;;;;;5072230;28;20197;-50
2022/01/18 08:10:04;;;;;;;5.20;0.87;;;6.50;47.10;;;;;;5073170;28;20169;-50
2022/01/18 08:12:30;;;;;;;3.30;1.05;;;6.50;47.20;;;;;;5071745;28;20257;-50
2022/01/18 08:15:02;;;;;;;1.40;0.77;;;6.60;47.10;;;;;;5072971;28;20262;-50
2022/01/18 08:17:28;;;;;;;1.00;0.50;;;6.60;47.10;;;;;;5072912;28;20188;-50
2022/01/18 08:19:54;;;;;;;1.48;1.10;;;6.60;47.10;;;;;;5072849;28;20248;-50
2022/01/18 08:22:20;;;;;;;1.20;0.50;;;6.60;47.10;;;;;;5072982;28;20623;-50
2022/01/18 08:24:45;;;;;;;2.33;1.13;;;6.60;47.00;;;;;;5073007;28;20173;-50
2022/01/18 08:27:11;;;;;;;1.83;1.27;;;6.70;47.10;;;;;;5072762;28;20453;-50
2022/01/18 08:29:37;;;;;;;2.37;1.10;;;6.70;47.10;;;;;;5073109;28;20172;-50
2022/01/18 08:32:06;;;;;;;1.27;0.50;;;6.70;47.00;;;;;;5072796;28;20230;-50
2022/01/18 08:34:32;;;;;;;1.38;0.82;;;6.70;47.00;;;;;;5072779;28;20222;-50
2022/01/18 08:36:59;;;;;;;1.60;1.00;;;6.70;46.90;;;;;;5072894;28;20161;-50
2022/01/18 08:39:25;;;;;;;3.45;1.10;;;6.60;46.90;;;;;;5072740;28;20226;-50
2022/01/18 08:41:50;;;;;;;1.13;0.80;;;6.70;47.20;;;;;;5072742;28;20164;-50
2022/01/18 08:44:16;;;;;;;1.40;0.70;;;6.70;47.30;;;;;;5072698;28;20415;-50
2022/01/18 08:46:42;;;;;;;1.00;0.40;;;6.70;47.50;;;;;;5072692;28;20250;-50
2022/01/18 08:49:08;;;;;;;6.10;1.25;;;6.70;47.60;;;;;;5072709;28;20629;-50
2022/01/18 08:51:34;;;;;;;1.73;0.40;;;6.70;47.80;;;;;;5073686;28;20167;-50
2022/01/18 08:54:01;;;;;;;1.30;0.50;;;6.70;47.80;;;;;;5076253;28;20414;-50
2022/01/18 08:56:27;;;;;;;1.00;0.45;;;6.80;47.70;;;;;;5076164;28;20628;-50
2022/01/18 08:58:53;;;;;;;2.43;0.93;;;6.80;47.80;;;;;;5076203;28;20164;-50
2022/01/18 09:01:18;;;;;;;1.43;0.57;;;6.90;47.90;;;;;;5076095;28;20210;-50
2022/01/18 09:03:45;;;;;;;1.60;0.93;;;6.90;47.80;;;;;;5076127;28;20168;-50
2022/01/18 09:06:13;;;;;;;2.20;1.10;;;6.90;47.90;;;;;;5075907;28;20805;-49
2022/01/18 09:08:41;;;;;;;1.20;0.80;;;6.90;48.00;;;;;;5075919;28;20183;-50
2022/01/18 09:11:07;;;;;;;2.40;0.70;;;6.90;48.10;;;;;;5075956;28;20173;-50
2022/01/18 09:13:34;;;;;;;1.95;0.65;;;6.90;48.30;;;;;;5074697;28;20161;-50
2022/01/18 09:16:01;;;;;;;4.70;1.27;;;6.90;48.30;;;;;;5075827;28;20226;-50
2022/01/18 09:18:27;;;;;;;4.82;0.80;;;6.90;48.40;;;;;;5074401;28;20172;-50
2022/01/18 09:20:53;;;;;;;1.38;0.73;;;7.00;48.40;;;;;;5075622;28;20224;-50
2022/01/18 09:23:19;;;;;;;1.13;0.57;;;7.00;48.40;;;;;;5075761;28;20176;-50
2022/01/18 09:25:44;;;;;;;3.17;0.90;;;7.10;48.50;;;;;;5075623;28;20861;-50
2022/01/18 09:28:10;;;;;;;1.10;0.57;;;7.10;48.40;;;;;;5075569;28;20491;-50
2022/01/18 09:30:37;;;;;;;5.22;0.95;;;7.10;48.30;;;;;;5075591;28;20418;-50
2022/01/18 09:33:06;;;;;;;1.65;0.77;;;7.10;48.50;;;;;;5075604;28;20168;-50
2022/01/18 09:35:32;;;;;;;1.80;0.77;;;7.10;48.50;;;;;;5075404;28;20161;-50
2022/01/18 09:37:58;;;;;;;2.55;0.85;;;7.20;48.50;;;;;;5075562;28;20214;-50
2022/01/18 09:40:24;;;;;;;1.87;0.83;;;7.20;48.40;;;;;;5075436;28;20161;-50
2022/01/18 09:42:55;;;;;;;2.58;1.60;;;7.20;48.30;;;;;;5075491;28;20180;-50
2022/01/18 09:45:22;;;;;;;4.03;0.65;;;7.20;48.30;;;;;;5075425;28;20157;-50
2022/01/18 09:47:50;;;;;;;1.40;0.63;;;7.30;48.40;;;;;;5075212;28;20211;-50
2022/01/18 09:50:21;;;;;;;3.95;0.93;;;7.20;48.40;;;;;;5075094;28;20229;-50
2022/01/18 09:52:52;;;;;;;1.30;0.68;;;7.30;48.60;;;;;;5075357;28;20149;-50
2022/01/18 09:55:20;;;;;;;1.17;0.63;;;7.30;48.50;;;;;;5075357;28;20520;-50
2022/01/18 09:57:46;;;;;;;1.33;0.65;;;7.30;48.50;;;;;;5075194;28;20165;-50
2022/01/18 10:00:12;;;;;;;1.10;0.50;;;7.30;48.60;;;;;;5074931;28;20628;-49
2022/01/18 10:02:38;;;;;;;2.27;0.67;;;7.30;48.60;;;;;;5074748;28;20767;-50
2022/01/18 10:05:20;;;;;;;3.92;1.13;;;7.20;48.70;;;;;;5074937;28;20407;-50
2022/01/18 10:07:55;;;;;;;1.10;0.40;;;7.20;48.90;;;;;;5074936;28;20165;-50
2022/01/18 10:10:42;;;;;;;1.05;0.50;;;7.30;49.10;;;;;;5074850;28;20559;-50
2022/01/18 10:13:14;;;;;;;6.70;1.23;;;7.30;49.10;;;;;;5075056;28;20164;-50
2022/01/18 10:15:40;;;;;;;3.03;1.20;;;7.30;49.40;;;;;;5074758;28;20161;-50
2022/01/18 10:18:08;;;;;;;1.30;0.60;;;7.30;49.50;;;;;;5074558;28;20208;-50
2022/01/18 10:20:48;;;;;;;1.20;0.73;;;7.40;49.30;;;;;;5074270;28;20632;-50
2022/01/18 10:23:22;;;;;;;2.03;1.20;;;7.60;49.10;;;;;;5074488;28;20153;-50
2022/01/18 10:25:48;;;;;;;1.40;0.63;;;7.70;49.10;;;;;;5074538;28;20549;-50
2022/01/18 10:28:35;;;;;;;1.63;1.00;;;7.80;48.90;;;;;;5074352;28;20181;-50
2022/01/18 10:31:21;;;;;;;1.85;1.00;;;8.00;48.70;;;;;;5074420;28;20164;-50
2022/01/18 10:33:58;;;;;;;1.20;0.73;;;8.50;48.30;;;;;;5074250;28;20172;-50
2022/01/18 10:36:25;;;;;;;3.17;0.80;;;8.60;47.70;;;;;;5074525;28;20172;-50
2022/01/18 10:39:01;;;;;;;1.58;0.95;;;8.80;47.30;;;;;;5074424;28;20176;-50
2022/01/18 10:41:34;;;;;;;1.40;0.65;;;8.70;47.00;;;;;;5074386;28;20162;-50
2022/01/18 10:44:05;;;;;;;1.42;0.75;;;8.70;47.00;;;;;;5074178;28;20157;-50
2022/01/18 10:46:47;;;;;;;2.90;1.00;;;8.60;47.00;;;;;;5073960;28;20196;-50
2022/01/18 10:49:27;;;;;;;5.78;0.95;;;8.60;46.80;;;;;;5073954;28;20577;-50
2022/01/18 10:52:02;;;;;;;1.40;0.80;;;8.50;47.60;;;;;;5074046;28;20673;-49
2022/01/18 10:54:59;;;;;;;1.23;0.50;;;8.40;47.50;;;;;;5073966;28;20224;-50
2022/01/18 10:57:26;;;;;;;1.42;0.82;;;8.50;47.60;;;;;;5069520;28;20176;-50
2022/01/18 10:59:56;;;;;;;3.50;1.08;;;8.40;47.20;;;;;;5073822;28;20259;-50
2022/01/18 11:02:22;;;;;;;1.20;0.40;;;8.40;47.20;;;;;;5073799;28;20215;-50
2022/01/18 11:04:53;;;;;;;1.80;1.10;;;8.30;46.80;;;;;;5073860;28;20185;-50
2022/01/18 11:07:26;;;;;;;1.10;0.50;;;8.20;47.30;;;;;;5073653;28;20734;-50
2022/01/18 11:09:54;;;;;;;1.73;0.93;;;8.20;47.50;;;;;;5073960;28;20199;-50
2022/01/18 11:12:24;;;;;;;1.20;0.60;;;8.20;47.60;;;;;;5073710;28;20162;-49
2022/01/18 11:15:02;;;;;;;1.98;0.75;;;8.20;47.60;;;;;;5073317;28;20165;-50
2022/01/18 11:17:37;;;;;;;2.70;0.95;;;8.20;47.60;;;;;;5073610;28;20200;-50
2022/01/18 11:20:05;;;;;;;1.83;0.70;;;8.10;47.60;;;;;;5073632;28;20228;-50
2022/01/18 11:22:31;;;;;;;1.35;0.93;;;8.10;47.90;;;;;;5073733;28;20211;-50
2022/01/18 11:24:59;;;;;;;1.00;0.40;;;8.00;47.80;;;;;;5073632;28;20203;-50
2022/01/18 11:27:28;;;;;;;1.10;0.40;;;8.00;48.20;;;;;;5073498;28;20492;-50
2022/01/18 11:29:54;;;;;;;1.10;0.40;;;8.00;48.00;;;;;;5072270;28;20234;-50
2022/01/18 11:32:24;;;;;;;2.70;0.80;;;8.00;48.10;;;;;;5073519;28;20161;-50
2022/01/18 11:35:17;;;;;;;2.85;0.95;;;8.10;48.00;;;;;;5073389;28;20404;-50
2022/01/18 11:37:58;;;;;;;4.32;2.38;;;8.10;47.80;;;;;;5073439;28;20176;-50
2022/01/18 11:40:24;;;;;;;2.80;0.95;;;8.10;47.20;;;;;;5072041;28;20217;-50
2022/01/18 11:42:51;;;;;;;5.78;0.77;;;8.00;47.60;;;;;;5073535;28;20187;-50
2022/01/18 11:45:29;;;;;;;1.58;0.88;;;8.10;47.70;;;;;;5073269;28;20171;-50
2022/01/18 11:48:03;;;;;;;1.40;1.10;;;8.20;47.20;;;;;;5073348;28;20177;-50
2022/01/18 11:50:30;;;;;;;8.25;1.33;;;8.30;47.50;;;;;;5072076;28;20178;-50
2022/01/18 11:53:24;;;;;;;1.10;0.40;;;8.40;47.00;;;;;;5073248;28;20179;-50
2022/01/18 11:55:52;;;;;;;1.83;0.98;;;8.60;46.40;;;;;;5073353;28;20161;-50
2022/01/18 11:58:18;;;;;;;3.28;1.05;;;8.60;46.90;;;;;;5073436;28;20178;-50
2022/01/18 12:01:03;;;;;;;4.50;1.30;;;8.70;46.50;;;;;;5073198;28;20170;-50
2022/01/18 12:03:43;;;;;;;1.90;0.98;;;8.70;45.70;;;;;;5073050;28;20161;-50
2022/01/18 12:06:09;;;;;;;4.22;0.70;;;8.60;46.10;;;;;;5073355;28;20188;-50
2022/01/18 12:08:40;;;;;;;1.42;0.82;;;8.70;46.00;;;;;;5071832;28;20520;-50
2022/01/18 12:11:09;;;;;;;1.65;0.93;;;8.70;46.20;;;;;;5073364;28;20161;-50
2022/01/18 12:13:41;;;;;;;1.25;0.60;;;8.80;46.50;;;;;;5073291;28;20629;-50
2022/01/18 12:16:17;;;;;;;3.15;1.00;;;8.80;45.10;;;;;;5072945;28;20163;-50
2022/01/18 12:18:54;;;;;;;2.53;0.63;;;8.90;46.00;;;;;;5073021;28;20152;-50
2022/01/18 12:21:26;;;;;;;1.30;0.68;;;8.90;45.40;;;;;;5072803;28;20221;-50
2022/01/18 12:23:52;;;;;;;2.95;0.80;;;8.80;44.60;;;;;;5073096;28;20512;-50
2022/01/18 12:26:46;;;;;;;1.87;1.00;;;8.70;46.50;;;;;;5075032;28;20192;-50
2022/01/18 12:34:34;;;;;;;1.30;0.90;;;8.80;45.60;;;;;;5076579;28;20253;-50
2022/01/18 12:37:11;;;;;;;2.05;0.70;;;8.80;45.50;;;;;;5076610;28;20171;-49
2022/01/18 12:39:53;;;;;;;1.08;0.40;;;8.80;45.30;;;;;;5076382;28;20177;-50
2022/01/18 12:45:07;;;;;;;6.22;1.25;;;8.70;45.70;;;;;;5076629;28;20162;-50
2022/01/18 12:47:35;;;;;;;1.65;0.73;;;8.80;45.00;;;;;;5076272;28;20196;-50
2022/01/18 12:50:06;;;;;;;1.10;0.40;;;8.70;45.20;;;;;;5076328;28;20178;-49
2022/01/18 12:52:53;;;;;;;1.77;0.60;;;8.70;45.30;;;;;;5076342;28;20520;-50
2022/01/18 12:55:44;;;;;;;2.05;0.60;;;8.70;45.00;;;;;;5076149;28;20173;-49
2022/01/18 12:58:22;;;;;;;1.13;0.45;;;8.70;45.50;;;;;;5076166;28;20159;-50
2022/01/18 13:01:00;;;;;;;1.10;0.50;;;8.60;45.70;;;;;;5076109;28;20636;-50
2022/01/18 13:03:27;;;;;;;2.00;0.60;;;8.60;46.00;;;;;;5076061;28;20172;-50
2022/01/18 13:05:57;;;;;;;1.30;0.50;;;8.70;46.10;;;;;;5076185;28;20557;-50
2022/01/18 13:08:26;;;;;;;1.27;0.82;;;8.80;45.70;;;;;;5076040;28;20220;-50
2022/01/18 13:10:53;;;;;;;2.25;1.13;;;8.80;45.90;;;;;;5074666;28;20170;-50
2022/01/18 13:13:28;;;;;;;5.50;1.35;;;8.80;45.70;;;;;;5075892;28;20176;-50
2022/01/18 13:26:34;;;;;;;2.55;1.15;;;8.90;45.40;;;;;;5075570;28;20277;-50
2022/01/18 13:29:24;;;;;;;2.30;0.88;;;8.90;45.70;;;;;;5075879;28;20175;-50
2022/01/18 13:32:00;;;;;;;1.20;0.50;;;9.00;45.10;;;;;;5075957;28;20165;-50
2022/01/18 13:34:33;;;;;;;1.10;0.60;;;9.00;44.30;;;;;;5075529;28;20180;-50
2022/01/18 13:37:02;;;;;;;1.05;0.38;;;8.90;45.00;;;;;;5074893;28;20163;-50
2022/01/18 13:39:36;;;;;;;1.00;0.32;;;8.80;45.00;;;;;;5075329;28;20175;-50
2022/01/18 13:42:04;;;;;;;1.00;0.30;;;8.60;45.30;;;;;;5075558;28;20286;-50
2022/01/18 13:44:30;;;;;;;2.25;1.42;;;8.50;45.90;;;;;;5075259;28;20172;-50
2022/01/18 13:47:12;;;;;;;1.73;0.88;;;8.60;46.00;;;;;;5073817;28;20250;-50
2022/01/18 13:49:38;;;;;;;1.40;0.70;;;8.60;46.30;;;;;;5075170;28;20515;-50
2022/01/18 13:52:14;;;;;;;1.40;0.80;;;8.60;46.20;;;;;;5075082;28;20176;-50
2022/01/18 13:54:50;;;;;;;1.38;0.60;;;8.70;46.50;;;;;;5075124;28;20170;-50
2022/01/18 13:57:18;;;;;;;1.10;0.50;;;8.80;46.30;;;;;;5074947;28;20198;-50
2022/01/18 13:59:45;;;;;;;4.03;0.80;;;8.80;46.10;;;;;;5074995;28;20157;-50
2022/01/18 14:02:13;;;;;;;1.17;0.35;;;8.80;46.30;;;;;;5074916;28;20175;-50
2022/01/18 14:04:40;;;;;;;1.23;0.57;;;8.70;46.30;;;;;;5074982;28;20164;-50
2022/01/18 14:07:06;;;;;;;1.30;0.70;;;8.70;46.50;;;;;;5075023;28;20194;-50
2022/01/18 14:09:32;;;;;;;1.35;0.80;;;8.70;46.60;;;;;;5075082;28;20189;-50
2022/01/18 14:11:58;;;;;;;1.20;0.70;;;8.70;46.60;;;;;;5074814;28;20546;-50
2022/01/18 14:14:26;;;;;;;2.63;0.87;;;8.80;46.00;;;;;;5074523;28;20170;-50
2022/01/18 14:16:53;;;;;;;1.67;0.65;;;8.80;46.10;;;;;;5074543;28;20404;-50
2022/01/18 14:19:39;;;;;;;1.38;0.40;;;8.80;46.70;;;;;;5074610;28;20174;-50
2022/01/18 14:22:20;;;;;;;1.38;0.63;;;8.80;46.20;;;;;;5074770;28;20184;-50
2022/01/18 14:24:50;;;;;;;2.00;0.77;;;8.80;46.20;;;;;;5074564;28;20208;-50
2022/01/18 14:27:25;;;;;;;1.30;0.80;;;8.80;46.40;;;;;;5074386;28;20199;-50
2022/01/18 14:30:00;;;;;;;1.00;0.30;;;8.80;46.60;;;;;;5074255;28;20174;-50
2022/01/18 14:32:39;;;;;;;1.00;0.30;;;8.70;46.80;;;;;;5074228;28;20168;-50
2022/01/18 14:35:15;;;;;;;1.10;0.40;;;8.60;46.90;;;;;;5074226;28;20158;-50
2022/01/18 14:38:02;;;;;;;1.10;0.52;;;8.60;47.20;;;;;;5074275;28;20188;-50